Time;durP1;ratioP1;P1;durP2;ratioP2;P2;SDS_P1;SDS_P2;PMS_P1;PMS_P2;Temp;Humidity;BMP_temperature;BMP_pressure;BME280_temperature;BME280_humidity;BME280_pressure;Samples;Min_cycle;Max_cycle;Signal;HPM_P1;HPM_P2
2023/07/01 00:00:53;;;;;;;5.93;3.60;;;;;;;;;;4918147;29;20028;-62
2023/07/01 00:03:19;;;;;;;5.22;3.75;;;;;;;;;;4918367;29;20028;-62
2023/07/01 00:05:45;;;;;;;5.97;3.75;;;;;;;;;;4918069;29;20439;-61
2023/07/01 00:08:10;;;;;;;4.10;3.53;;;;;;;;;;4917977;29;20034;-62
2023/07/01 00:10:36;;;;;;;4.50;3.95;;;;;;;;;;4918205;29;20099;-62
2023/07/01 00:13:01;;;;;;;5.03;3.72;;;;;;;;;;4918212;29;20438;-61
2023/07/01 00:15:27;;;;;;;6.53;3.55;;;;;;;;;;4917823;29;20557;-62
2023/07/01 00:17:54;;;;;;;7.40;3.88;;;;;;;;;;4917303;29;20034;-61
2023/07/01 00:20:21;;;;;;;4.63;3.60;;;;;;;;;;4918111;29;20071;-61
2023/07/01 00:22:47;;;;;;;5.05;4.10;;;;;;;;;;4917738;29;20028;-61
2023/07/01 00:25:12;;;;;;;6.72;3.92;;;;;;;;;;4916465;29;20119;-61
2023/07/01 00:27:38;;;;;;;7.03;3.72;;;;;;;;;;4917663;29;20032;-61
2023/07/01 00:30:04;;;;;;;4.10;3.55;;;;;;;;;;4917578;29;20024;-62
2023/07/01 00:32:30;;;;;;;8.20;3.67;;;;;;;;;;4917473;29;20513;-61
2023/07/01 00:34:55;;;;;;;5.88;3.72;;;;;;;;;;4917732;29;20068;-61
2023/07/01 00:37:21;;;;;;;5.93;4.00;;;;;;;;;;4917413;29;20087;-61
2023/07/01 00:39:46;;;;;;;5.82;3.85;;;;;;;;;;4917703;29;20044;-61
2023/07/01 00:42:13;;;;;;;7.20;3.65;;;;;;;;;;4917341;29;20107;-61
2023/07/01 00:44:39;;;;;;;5.13;3.80;;;;;;;;;;4917289;29;20028;-61
2023/07/01 00:47:05;;;;;;;7.57;3.92;;;;;;;;;;4917127;29;20183;-61
2023/07/01 00:49:31;;;;;;;6.07;3.65;;;;;;;;;;4917347;29;20485;-61
2023/07/01 00:51:57;;;;;;;9.65;3.88;;;;;;;;;;4917228;29;20043;-61
2023/07/01 00:54:23;;;;;;;4.95;3.72;;;;;;;;;;4917116;29;20107;-62
2023/07/01 00:56:48;;;;;;;5.18;3.80;;;;;;;;;;4917072;29;20028;-62
2023/07/01 00:59:14;;;;;;;8.27;3.58;;;;;;;;;;4917112;29;20385;-61
2023/07/01 01:01:44;;;;;;;6.40;3.88;;;;;;;;;;4917100;29;20031;-62
2023/07/01 01:04:35;;;;;;;6.32;3.60;;;;;;;;;;4917316;29;20462;-62
2023/07/01 01:07:12;;;;;;;5.90;3.75;;;;;;;;;;4917282;29;20123;-62
2023/07/01 01:09:44;;;;;;;6.68;4.25;;;;;;;;;;4916991;29;20043;-61
2023/07/01 01:12:12;;;;;;;5.53;3.55;;;;;;;;;;4915670;29;20377;-62
2023/07/01 01:14:39;;;;;;;6.32;3.70;;;;;;;;;;4917140;29;20036;-62
2023/07/01 01:17:14;;;;;;;4.97;3.95;;;;;;;;;;4917041;29;20397;-62
2023/07/01 01:19:46;;;;;;;4.50;3.60;;;;;;;;;;4916845;29;20103;-62
2023/07/01 01:22:20;;;;;;;5.47;3.53;;;;;;;;;;4916856;29;20028;-62
2023/07/01 01:24:51;;;;;;;5.13;3.70;;;;;;;;;;4916759;29;20096;-62
2023/07/01 01:27:23;;;;;;;6.60;3.72;;;;;;;;;;4916695;29;20115;-62
2023/07/01 01:29:49;;;;;;;5.30;3.80;;;;;;;;;;4916166;29;20059;-61
2023/07/01 01:32:14;;;;;;;7.90;4.18;;;;;;;;;;4916871;29;20032;-61
2023/07/01 01:34:40;;;;;;;4.80;4.00;;;;;;;;;;4916587;29;20043;-61
2023/07/01 01:37:19;;;;;;;5.57;3.72;;;;;;;;;;4916771;29;20051;-61
2023/07/01 01:39:48;;;;;;;4.63;3.93;;;;;;;;;;4915866;29;20032;-61
2023/07/01 01:42:21;;;;;;;7.00;4.00;;;;;;;;;;4916613;29;20480;-62
2023/07/01 01:44:52;;;;;;;6.75;3.60;;;;;;;;;;4916844;29;20028;-62
2023/07/01 01:47:28;;;;;;;6.03;3.65;;;;;;;;;;4916355;29;20087;-61
2023/07/01 01:50:02;;;;;;;6.82;3.80;;;;;;;;;;4916251;29;20064;-61
2023/07/01 01:52:28;;;;;;;5.10;3.88;;;;;;;;;;4916348;29;20087;-61
2023/07/01 01:54:56;;;;;;;5.00;3.63;;;;;;;;;;4916548;29;20020;-61
2023/07/01 01:57:22;;;;;;;4.90;3.80;;;;;;;;;;4916330;29;20035;-62
2023/07/01 01:59:47;;;;;;;5.38;3.60;;;;;;;;;;4916315;29;20123;-62
2023/07/01 02:02:13;;;;;;;5.78;3.78;;;;;;;;;;4916299;29;20127;-62
2023/07/01 02:04:39;;;;;;;4.40;3.80;;;;;;;;;;4916493;29;20063;-62
2023/07/01 02:07:05;;;;;;;5.78;3.60;;;;;;;;;;4916460;29;20474;-62
2023/07/01 02:09:30;;;;;;;5.65;3.42;;;;;;;;;;4916514;29;20032;-61
2023/07/01 02:11:56;;;;;;;4.07;3.50;;;;;;;;;;4916189;29;20024;-61
2023/07/01 02:14:23;;;;;;;4.35;3.80;;;;;;;;;;4916253;29;20119;-62
2023/07/01 02:16:50;;;;;;;4.00;3.30;;;;;;;;;;4916129;29;20036;-62
2023/07/01 02:19:15;;;;;;;5.18;3.40;;;;;;;;;;4916437;29;20036;-61
2023/07/01 02:21:41;;;;;;;5.95;3.97;;;;;;;;;;4916198;29;20382;-62
2023/07/01 02:24:07;;;;;;;4.28;3.85;;;;;;;;;;4916356;29;20373;-61
2023/07/01 02:26:32;;;;;;;6.30;3.65;;;;;;;;;;4916379;29;20431;-62
2023/07/01 02:28:58;;;;;;;5.40;3.58;;;;;;;;;;4916391;29;20115;-62
2023/07/01 02:31:24;;;;;;;3.70;3.25;;;;;;;;;;4916017;29;20025;-62
2023/07/01 02:33:50;;;;;;;5.88;3.88;;;;;;;;;;4916012;29;20036;-62
2023/07/01 02:36:16;;;;;;;4.10;3.60;;;;;;;;;;4915936;29;20027;-62
2023/07/01 02:38:41;;;;;;;8.45;4.55;;;;;;;;;;4915961;29;20051;-62
2023/07/01 02:41:07;;;;;;;4.43;3.60;;;;;;;;;;4917357;29;20028;-62
2023/07/01 02:43:32;;;;;;;4.55;3.92;;;;;;;;;;4919526;29;20052;-62
2023/07/01 02:45:58;;;;;;;6.97;3.88;;;;;;;;;;4919467;29;20032;-62
2023/07/01 02:48:23;;;;;;;4.15;3.72;;;;;;;;;;4919313;29;20048;-62
2023/07/01 02:50:49;;;;;;;4.28;3.72;;;;;;;;;;4919426;29;20024;-62
2023/07/01 02:53:20;;;;;;;5.25;3.50;;;;;;;;;;4919324;29;20047;-62
2023/07/01 02:55:46;;;;;;;6.25;3.78;;;;;;;;;;4919291;29;20083;-62
2023/07/01 02:58:12;;;;;;;8.65;3.60;;;;;;;;;;4919236;29;20111;-62
2023/07/01 03:00:37;;;;;;;5.35;3.83;;;;;;;;;;4919514;29;20032;-61
2023/07/01 03:03:06;;;;;;;5.03;3.95;;;;;;;;;;4919468;29;20028;-62
2023/07/01 03:05:33;;;;;;;4.70;3.80;;;;;;;;;;4919101;29;20024;-61
2023/07/01 03:07:58;;;;;;;5.57;4.05;;;;;;;;;;4919047;29;20036;-61
2023/07/01 03:10:24;;;;;;;5.38;3.65;;;;;;;;;;4918976;29;20024;-61
2023/07/01 03:12:50;;;;;;;4.97;3.78;;;;;;;;;;4919017;29;20028;-61
2023/07/01 03:15:15;;;;;;;4.60;4.15;;;;;;;;;;4918840;29;20038;-61
2023/07/01 03:17:41;;;;;;;5.93;3.65;;;;;;;;;;4918849;29;20035;-61
2023/07/01 03:20:08;;;;;;;4.05;3.67;;;;;;;;;;4918878;29;20055;-61
2023/07/01 03:22:33;;;;;;;5.30;4.20;;;;;;;;;;4918818;29;20028;-62
2023/07/01 03:24:59;;;;;;;6.00;3.70;;;;;;;;;;4919029;29;20032;-62
2023/07/01 03:27:24;;;;;;;4.13;3.60;;;;;;;;;;4919326;29;20343;-62
2023/07/01 03:29:52;;;;;;;4.50;4.00;;;;;;;;;;4918968;29;20060;-61
2023/07/01 03:32:18;;;;;;;4.60;3.70;;;;;;;;;;4918941;29;20036;-62
2023/07/01 03:34:43;;;;;;;5.75;3.85;;;;;;;;;;4918559;29;20505;-61
2023/07/01 03:37:09;;;;;;;4.28;3.80;;;;;;;;;;4918699;29;20047;-61
2023/07/01 03:39:34;;;;;;;5.63;3.90;;;;;;;;;;4918476;29;20039;-61
2023/07/01 03:42:00;;;;;;;11.43;3.60;;;;;;;;;;4918766;29;20032;-62
2023/07/01 03:44:25;;;;;;;4.30;3.90;;;;;;;;;;4918407;29;20509;-61
2023/07/01 03:46:51;;;;;;;5.20;4.40;;;;;;;;;;4918276;29;20040;-63
2023/07/01 03:49:16;;;;;;;4.05;3.65;;;;;;;;;;4918652;29;20379;-63
2023/07/01 03:51:43;;;;;;;5.35;4.13;;;;;;;;;;4918043;29;20057;-62
2023/07/01 03:54:09;;;;;;;5.38;3.70;;;;;;;;;;4918021;29;20024;-61
2023/07/01 03:56:34;;;;;;;4.65;4.18;;;;;;;;;;4918125;29;20485;-62
2023/07/01 03:59:00;;;;;;;4.35;3.92;;;;;;;;;;4918108;29;20029;-61
2023/07/01 04:01:27;;;;;;;4.25;3.60;;;;;;;;;;4918368;29;20024;-62
2023/07/01 04:03:53;;;;;;;5.03;3.95;;;;;;;;;;4918321;29;20042;-62
2023/07/01 04:06:18;;;;;;;4.13;3.70;;;;;;;;;;4918062;29;20063;-62
2023/07/01 04:08:44;;;;;;;5.80;3.78;;;;;;;;;;4917952;29;20426;-62
2023/07/01 04:11:10;;;;;;;4.63;3.97;;;;;;;;;;4917973;29;20067;-61
2023/07/01 04:13:35;;;;;;;5.18;4.03;;;;;;;;;;4917949;29;20287;-61
2023/07/01 04:16:01;;;;;;;6.20;4.20;;;;;;;;;;4917844;29;20039;-61
2023/07/01 04:18:26;;;;;;;6.07;4.10;;;;;;;;;;4917735;29;20474;-61
2023/07/01 04:20:53;;;;;;;4.15;3.60;;;;;;;;;;4900869;29;20024;-61
2023/07/01 04:23:19;;;;;;;5.07;3.90;;;;;;;;;;4917953;29;20036;-61
2023/07/01 04:25:44;;;;;;;6.03;3.50;;;;;;;;;;4917698;29;20386;-62
2023/07/01 04:28:10;;;;;;;4.40;4.00;;;;;;;;;;4917596;29;20031;-63
2023/07/01 04:30:35;;;;;;;4.55;3.67;;;;;;;;;;4917867;29;20107;-62
2023/07/01 04:33:01;;;;;;;4.38;3.97;;;;;;;;;;4917536;29;20466;-62
2023/07/01 04:35:27;;;;;;;4.90;4.03;;;;;;;;;;4917401;29;20039;-62
2023/07/01 04:37:52;;;;;;;5.47;3.70;;;;;;;;;;4917449;29;20028;-62
2023/07/01 04:40:18;;;;;;;3.72;3.42;;;;;;;;;;4917427;29;20172;-61
2023/07/01 04:42:50;;;;;;;4.90;3.80;;;;;;;;;;4916099;29;20036;-61
2023/07/01 04:45:18;;;;;;;4.85;3.70;;;;;;;;;;4917602;29;20032;-62
2023/07/01 04:47:44;;;;;;;4.70;3.97;;;;;;;;;;4917127;29;20040;-61
2023/07/01 04:50:10;;;;;;;7.75;4.13;;;;;;;;;;4917512;29;20032;-62
2023/07/01 04:52:35;;;;;;;4.35;3.70;;;;;;;;;;4917493;29;20381;-62
2023/07/01 04:55:01;;;;;;;5.25;3.72;;;;;;;;;;4917007;29;20389;-61
2023/07/01 04:57:26;;;;;;;4.88;3.63;;;;;;;;;;4917167;29;20024;-62
2023/07/01 04:59:52;;;;;;;3.97;3.67;;;;;;;;;;4917137;29;20024;-62
2023/07/01 05:02:18;;;;;;;5.15;3.50;;;;;;;;;;4917370;29;20036;-63
2023/07/01 05:04:44;;;;;;;4.72;3.83;;;;;;;;;;4917139;29;20521;-63
2023/07/01 05:07:09;;;;;;;4.13;3.72;;;;;;;;;;4917295;29;20380;-61
2023/07/01 05:09:35;;;;;;;4.13;3.70;;;;;;;;;;4917238;29;20028;-61
2023/07/01 05:12:01;;;;;;;5.38;3.78;;;;;;;;;;4917197;29;20067;-61
2023/07/01 05:14:26;;;;;;;4.03;3.63;;;;;;;;;;4916829;29;20485;-61
2023/07/01 05:16:52;;;;;;;4.97;3.78;;;;;;;;;;4916762;29;20111;-60
2023/07/01 05:19:17;;;;;;;4.47;3.75;;;;;;;;;;4916788;29;20066;-61
2023/07/01 05:21:51;;;;;;;7.15;4.35;;;;;;;;;;4917007;29;20465;-62
2023/07/01 05:24:17;;;;;;;5.65;3.95;;;;;;;;;;4915529;29;20550;-61
2023/07/01 05:26:48;;;;;;;4.60;3.70;;;;;;;;;;4916948;29;20489;-61
2023/07/01 05:29:14;;;;;;;4.90;3.90;;;;;;;;;;4916912;29;20028;-61
2023/07/01 05:31:39;;;;;;;5.45;3.65;;;;;;;;;;4916895;29;20020;-61
2023/07/01 05:34:05;;;;;;;5.85;3.75;;;;;;;;;;4916526;29;20024;-63
2023/07/01 05:36:31;;;;;;;5.45;3.90;;;;;;;;;;4915820;29;20035;-63
2023/07/01 05:38:57;;;;;;;5.57;3.72;;;;;;;;;;4915293;29;20035;-62
2023/07/01 05:41:22;;;;;;;5.45;3.85;;;;;;;;;;4914658;29;20485;-62
2023/07/01 05:43:49;;;;;;;7.68;3.97;;;;;;;;;;4914632;29;20031;-63
2023/07/01 05:46:14;;;;;;;4.10;3.53;;;;;;;;;;4914786;29;20036;-63
2023/07/01 05:48:41;;;;;;;4.22;3.83;;;;;;;;;;4914316;29;20414;-63
2023/07/01 05:51:07;;;;;;;4.00;3.60;;;;;;;;;;4914892;29;20028;-61
2023/07/01 05:53:32;;;;;;;6.10;4.05;;;;;;;;;;4914518;29;20048;-62
2023/07/01 05:55:58;;;;;;;5.07;3.88;;;;;;;;;;4914424;29;20039;-62
2023/07/01 05:58:23;;;;;;;3.83;3.42;;;;;;;;;;4914986;29;20036;-61
2023/07/01 06:00:50;;;;;;;4.03;3.67;;;;;;;;;;4916499;29;20115;-61
2023/07/01 06:03:15;;;;;;;5.30;4.03;;;;;;;;;;4916580;29;20064;-61
2023/07/01 06:05:41;;;;;;;3.72;3.40;;;;;;;;;;4916247;29;20512;-62
2023/07/01 06:08:07;;;;;;;7.10;3.97;;;;;;;;;;4916501;29;20040;-61
2023/07/01 06:10:33;;;;;;;4.20;3.70;;;;;;;;;;4916200;29;20471;-60
2023/07/01 06:12:59;;;;;;;5.72;3.88;;;;;;;;;;4916445;29;20381;-61
2023/07/01 06:15:24;;;;;;;4.25;3.85;;;;;;;;;;4916738;29;20028;-61
2023/07/01 06:17:50;;;;;;;4.43;3.88;;;;;;;;;;4919928;29;20028;-63
2023/07/01 06:20:16;;;;;;;4.07;3.38;;;;;;;;;;4919929;29;20072;-62
2023/07/01 06:22:41;;;;;;;5.15;3.88;;;;;;;;;;4919872;29;20059;-62
2023/07/01 06:25:10;;;;;;;5.68;3.65;;;;;;;;;;4919761;29;20047;-62
2023/07/01 06:27:39;;;;;;;5.88;4.10;;;;;;;;;;4919780;29;20024;-62
2023/07/01 06:30:05;;;;;;;5.53;4.00;;;;;;;;;;4919734;29;20028;-61
2023/07/01 06:32:31;;;;;;;5.13;3.88;;;;;;;;;;4919956;29;20047;-62
2023/07/01 06:34:56;;;;;;;6.63;3.60;;;;;;;;;;4919440;29;20024;-62
2023/07/01 06:37:22;;;;;;;6.88;3.70;;;;;;;;;;4919012;29;20071;-61
2023/07/01 06:39:47;;;;;;;6.45;3.85;;;;;;;;;;4909890;29;20036;-62
2023/07/01 06:42:13;;;;;;;4.85;3.75;;;;;;;;;;4919163;29;20042;-64
2023/07/01 06:44:39;;;;;;;4.15;3.60;;;;;;;;;;4919010;29;20363;-63
2023/07/01 06:47:05;;;;;;;4.15;3.80;;;;;;;;;;4919049;29;20063;-63
2023/07/01 06:49:32;;;;;;;5.28;3.85;;;;;;;;;;4919194;29;20481;-61
2023/07/01 06:51:58;;;;;;;5.53;4.10;;;;;;;;;;4918759;29;20019;-60
2023/07/01 06:54:24;;;;;;;4.00;3.60;;;;;;;;;;4921588;29;20036;-62
2023/07/01 06:56:49;;;;;;;4.22;3.83;;;;;;;;;;4927227;29;20505;-63
2023/07/01 06:59:15;;;;;;;3.80;3.50;;;;;;;;;;4927469;29;20034;-63
2023/07/01 07:01:40;;;;;;;4.38;3.97;;;;;;;;;;4927342;29;20024;-63
2023/07/01 07:04:06;;;;;;;5.25;3.67;;;;;;;;;;4925962;29;20027;-64
2023/07/01 07:06:32;;;;;;;3.63;3.33;;;;;;;;;;4929182;29;20028;-62
2023/07/01 07:08:58;;;;;;;4.07;3.70;;;;;;;;;;4921282;29;20076;-62
2023/07/01 07:11:24;;;;;;;4.32;3.85;;;;;;;;;;4927433;29;20474;-63
2023/07/01 07:13:49;;;;;;;5.03;3.63;;;;;;;;;;4926329;29;20024;-62
2023/07/01 07:16:15;;;;;;;4.32;3.75;;;;;;;;;;4927591;29;20086;-63
2023/07/01 07:18:41;;;;;;;3.88;3.58;;;;;;;;;;4927134;29;20052;-63
2023/07/01 07:21:06;;;;;;;6.18;3.58;;;;;;;;;;4927054;29;20500;-62
2023/07/01 07:23:32;;;;;;;4.30;3.85;;;;;;;;;;4927572;29;20436;-63
2023/07/01 07:25:57;;;;;;;4.30;3.88;;;;;;;;;;4909428;29;20036;-63
2023/07/01 07:28:23;;;;;;;4.03;3.60;;;;;;;;;;4924653;29;20028;-62
2023/07/01 07:30:49;;;;;;;6.07;4.07;;;;;;;;;;4924906;29;20028;-62
2023/07/01 07:33:14;;;;;;;4.50;3.85;;;;;;;;;;4927592;29;20397;-62
2023/07/01 07:35:40;;;;;;;4.03;3.60;;;;;;;;;;4925317;29;20050;-62
2023/07/01 07:38:05;;;;;;;4.25;3.85;;;;;;;;;;4925973;29;20024;-63
2023/07/01 07:40:31;;;;;;;4.03;3.63;;;;;;;;;;4926633;29;20031;-63
2023/07/01 07:42:57;;;;;;;3.60;3.30;;;;;;;;;;4918541;29;20020;-62
2023/07/01 07:45:22;;;;;;;4.68;3.90;;;;;;;;;;4918629;29;20442;-62
2023/07/01 07:47:48;;;;;;;4.13;3.72;;;;;;;;;;4918176;29;20086;-62
2023/07/01 07:50:14;;;;;;;4.72;3.58;;;;;;;;;;4918265;29;21165;-62
2023/07/01 07:52:40;;;;;;;4.53;3.63;;;;;;;;;;4916837;29;20060;-63
2023/07/01 07:55:06;;;;;;;5.70;3.70;;;;;;;;;;4917952;29;20055;-63
2023/07/01 07:57:31;;;;;;;5.13;3.83;;;;;;;;;;4918399;29;20028;-63
2023/07/01 07:59:59;;;;;;;8.05;3.63;;;;;;;;;;4934687;29;20489;-63
2023/07/01 08:02:24;;;;;;;4.43;3.75;;;;;;;;;;4920018;29;20027;-63
2023/07/01 08:04:50;;;;;;;4.07;3.67;;;;;;;;;;4936936;29;20036;-64
2023/07/01 08:07:15;;;;;;;4.07;3.67;;;;;;;;;;4937026;29;20561;-63
2023/07/01 08:09:41;;;;;;;5.85;3.85;;;;;;;;;;4936049;29;20035;-64
2023/07/01 08:12:07;;;;;;;4.35;3.40;;;;;;;;;;4919835;29;20512;-63
2023/07/01 08:14:33;;;;;;;4.05;3.40;;;;;;;;;;4937042;29;20035;-63
2023/07/01 08:16:59;;;;;;;3.95;3.42;;;;;;;;;;4918472;29;20490;-63
2023/07/01 08:19:25;;;;;;;6.40;4.10;;;;;;;;;;4920397;29;20031;-63
2023/07/01 08:21:51;;;;;;;3.88;3.47;;;;;;;;;;4917854;29;20036;-63
2023/07/01 08:24:16;;;;;;;7.53;3.88;;;;;;;;;;4917128;29;20030;-63
2023/07/01 08:26:42;;;;;;;5.32;3.50;;;;;;;;;;4917301;29;20381;-63
2023/07/01 08:29:09;;;;;;;4.53;4.13;;;;;;;;;;4916773;29;20040;-63
2023/07/01 08:31:35;;;;;;;3.63;3.33;;;;;;;;;;4916043;29;20024;-64
2023/07/01 08:34:01;;;;;;;4.25;3.85;;;;;;;;;;4917465;29;20042;-63
2023/07/01 08:36:27;;;;;;;5.25;3.75;;;;;;;;;;4917741;29;20133;-64
2023/07/01 08:38:53;;;;;;;3.90;3.47;;;;;;;;;;4917355;29;20490;-63
2023/07/01 08:41:21;;;;;;;4.05;3.65;;;;;;;;;;4917456;29;20032;-63
2023/07/01 08:43:50;;;;;;;4.40;4.00;;;;;;;;;;4917429;29;20483;-63
2023/07/01 08:46:18;;;;;;;4.32;3.92;;;;;;;;;;4917387;29;20032;-62
2023/07/01 08:48:47;;;;;;;14.25;4.13;;;;;;;;;;4917232;29;20040;-63
2023/07/01 08:51:36;;;;;;;4.13;3.43;;;;;;;;;;4917309;29;20079;-63
2023/07/01 08:54:03;;;;;;;5.22;3.50;;;;;;;;;;4917221;29;20036;-63
2023/07/01 08:56:29;;;;;;;4.60;3.70;;;;;;;;;;4900849;29;20036;-63
2023/07/01 08:58:55;;;;;;;4.30;3.90;;;;;;;;;;4917152;29;20028;-63
2023/07/01 09:01:20;;;;;;;4.05;3.53;;;;;;;;;;4900298;29;20024;-63
2023/07/01 09:03:47;;;;;;;4.78;3.70;;;;;;;;;;4917052;29;20028;-63
2023/07/01 09:06:13;;;;;;;4.78;3.80;;;;;;;;;;4917072;29;20406;-63
2023/07/01 09:08:39;;;;;;;5.05;3.88;;;;;;;;;;4916690;29;20043;-63
2023/07/01 09:11:06;;;;;;;4.32;3.70;;;;;;;;;;4916846;29;20028;-63
2023/07/01 09:13:31;;;;;;;6.10;3.67;;;;;;;;;;4916730;29;20035;-63
2023/07/01 09:15:57;;;;;;;3.90;3.50;;;;;;;;;;4916653;29;20025;-63
2023/07/01 09:18:42;;;;;;;4.65;3.53;;;;;;;;;;4916805;29;20035;-62
2023/07/01 09:21:25;;;;;;;3.78;3.38;;;;;;;;;;4886673;29;20040;-63
2023/07/01 09:23:50;;;;;;;4.25;3.85;;;;;;;;;;4914242;29;20036;-63
2023/07/01 09:26:19;;;;;;;4.07;3.70;;;;;;;;;;4915555;29;20042;-63
2023/07/01 09:28:49;;;;;;;3.58;3.28;;;;;;;;;;4916530;29;20048;-64
2023/07/01 09:31:16;;;;;;;7.03;3.60;;;;;;;;;;4916653;29;20482;-63
2023/07/01 09:34:05;;;;;;;3.42;3.13;;;;;;;;;;4916655;29;20028;-63
2023/07/01 09:36:32;;;;;;;5.00;3.58;;;;;;;;;;4916512;29;20514;-63
2023/07/01 09:38:58;;;;;;;3.90;3.45;;;;;;;;;;4916650;29;20095;-64
2023/07/01 09:41:26;;;;;;;4.13;3.67;;;;;;;;;;4916449;29;20019;-63
2023/07/01 09:43:59;;;;;;;7.00;3.58;;;;;;;;;;4916675;29;20056;-62
2023/07/01 09:46:42;;;;;;;6.05;3.83;;;;;;;;;;4916470;29;20466;-62
2023/07/01 09:49:08;;;;;;;5.55;3.80;;;;;;;;;;4916747;29;20086;-62
2023/07/01 09:51:45;;;;;;;6.00;3.20;;;;;;;;;;4915882;29;20040;-62
2023/07/01 09:54:24;;;;;;;5.05;3.60;;;;;;;;;;4916837;29;20072;-61
2023/07/01 09:56:51;;;;;;;4.60;3.50;;;;;;;;;;4916455;29;20125;-63
2023/07/01 09:59:17;;;;;;;4.97;3.70;;;;;;;;;;4916623;29;20067;-63
2023/07/01 10:01:42;;;;;;;5.13;3.83;;;;;;;;;;4916483;29;20051;-61
2023/07/01 10:04:09;;;;;;;3.75;3.35;;;;;;;;;;4916297;29;20036;-62
2023/07/01 10:06:34;;;;;;;5.30;3.78;;;;;;;;;;4916292;29;20064;-61
2023/07/01 10:09:00;;;;;;;4.80;3.47;;;;;;;;;;4916354;29;20067;-62
2023/07/01 10:11:26;;;;;;;5.60;3.50;;;;;;;;;;4916562;29;20114;-62
2023/07/01 10:13:54;;;;;;;7.50;3.25;;;;;;;;;;4916276;29;20051;-62
2023/07/01 10:16:20;;;;;;;6.50;3.50;;;;;;;;;;4916140;29;20114;-63
2023/07/01 10:18:46;;;;;;;7.85;3.33;;;;;;;;;;4916259;29;20028;-62
2023/07/01 10:21:23;;;;;;;6.47;4.63;;;;;;;;;;4916391;29;20387;-62
2023/07/01 10:23:52;;;;;;;4.20;3.38;;;;;;;;;;4916432;29;20024;-61
2023/07/01 10:26:37;;;;;;;5.60;3.97;;;;;;;;;;4916425;29;20036;-62
2023/07/01 10:29:27;;;;;;;5.35;3.30;;;;;;;;;;4916347;29;20087;-62
2023/07/01 10:32:08;;;;;;;3.78;3.47;;;;;;;;;;4916015;29;20429;-61
2023/07/01 10:34:52;;;;;;;7.13;3.75;;;;;;;;;;4916313;29;20032;-62
2023/07/01 10:37:22;;;;;;;4.22;3.42;;;;;;;;;;4916293;29;20044;-62
2023/07/01 10:39:48;;;;;;;;;;;;;;;;;;4916189;29;20040;-62
2023/07/01 10:42:36;;;;;;;5.57;3.33;;;;;;;;;;4916166;29;19919;-62
2023/07/01 10:45:11;;;;;;;4.68;3.42;;;;;;;;;;4916150;29;20032;-62
2023/07/01 10:47:57;;;;;;;4.20;3.80;;;;;;;;;;4914838;29;20075;-62
2023/07/01 10:50:22;;;;;;;6.75;3.42;;;;;;;;;;4908604;29;21320;-63
2023/07/01 10:52:57;;;;;;;5.47;3.50;;;;;;;;;;4913093;29;20075;-63
2023/07/01 10:55:46;;;;;;;3.85;3.45;;;;;;;;;;4916127;29;20036;-63
2023/07/01 10:58:28;;;;;;;6.75;3.45;;;;;;;;;;4916157;29;20070;-63
2023/07/01 11:00:55;;;;;;;4.47;3.40;;;;;;;;;;4915743;29;20103;-62
2023/07/01 11:03:36;;;;;;;9.40;3.60;;;;;;;;;;4919142;29;20032;-64
2023/07/01 11:06:08;;;;;;;5.13;3.30;;;;;;;;;;4920476;29;20084;-61
2023/07/01 11:08:42;;;;;;;4.10;3.58;;;;;;;;;;4919123;29;20028;-60
2023/07/01 11:11:08;;;;;;;5.47;3.47;;;;;;;;;;4918172;29;20091;-60
2023/07/01 11:13:35;;;;;;;5.53;3.30;;;;;;;;;;4919126;29;20076;-60
2023/07/01 11:16:03;;;;;;;7.80;3.55;;;;;;;;;;4901951;29;20485;-61
2023/07/01 11:18:49;;;;;;;9.90;3.38;;;;;;;;;;4919239;29;20039;-60
2023/07/01 11:21:19;;;;;;;5.50;3.50;;;;;;;;;;4918898;29;20020;-63
2023/07/01 11:23:53;;;;;;;5.00;3.30;;;;;;;;;;4918508;29;20032;-62
2023/07/01 11:26:21;;;;;;;6.07;3.25;;;;;;;;;;4918723;29;20112;-61
2023/07/01 11:28:51;;;;;;;10.70;3.40;;;;;;;;;;4919108;29;20054;-61
2023/07/01 11:31:19;;;;;;;8.52;3.53;;;;;;;;;;4918761;29;20036;-61
2023/07/01 11:33:49;;;;;;;8.35;3.22;;;;;;;;;;4918738;29;20036;-61
2023/07/01 11:36:17;;;;;;;3.45;3.05;;;;;;;;;;4918644;29;20036;-64
2023/07/01 11:39:16;;;;;;;6.03;3.42;;;;;;;;;;4918623;29;20084;-62
2023/07/01 11:43:05;;;;;;;8.73;3.53;;;;;;;;;;4917053;29;20060;-65
2023/07/01 11:45:52;;;;;;;6.50;3.30;;;;;;;;;;4847133;29;20077;-61
2023/07/01 11:48:37;;;;;;;9.02;3.60;;;;;;;;;;4878878;29;20137;-60
2023/07/01 11:51:13;;;;;;;12.90;3.50;;;;;;;;;;4864243;29;20033;-60
2023/07/01 11:54:04;;;;;;;9.98;3.95;;;;;;;;;;4879239;29;20401;-61
2023/07/01 11:56:37;;;;;;;10.48;3.60;;;;;;;;;;4882598;29;20032;-61
2023/07/01 11:59:07;;;;;;;5.45;3.17;;;;;;;;;;4897949;29;20064;-61
2023/07/01 12:01:42;;;;;;;7.28;3.38;;;;;;;;;;4901198;29;20037;-60
2023/07/01 12:04:19;;;;;;;19.23;3.88;;;;;;;;;;4898236;29;20562;-61
2023/07/01 12:06:50;;;;;;;12.38;3.60;;;;;;;;;;4898364;29;20043;-61
2023/07/01 12:09:34;;;;;;;4.88;3.15;;;;;;;;;;4899235;29;20048;-61
2023/07/01 12:12:06;;;;;;;7.93;3.40;;;;;;;;;;4898133;29;20063;-63
2023/07/01 12:14:38;;;;;;;4.25;3.47;;;;;;;;;;4897273;29;20034;-62
2023/07/01 12:17:12;;;;;;;6.05;3.50;;;;;;;;;;4898995;29;20040;-61
2023/07/01 12:19:42;;;;;;;5.97;3.42;;;;;;;;;;4883345;29;20032;-63
2023/07/01 12:22:08;;;;;;;5.57;3.55;;;;;;;;;;4898868;29;20028;-62
2023/07/01 12:24:35;;;;;;;8.55;3.50;;;;;;;;;;4898945;29;20541;-61
2023/07/01 12:27:03;;;;;;;4.70;3.47;;;;;;;;;;4899074;29;20150;-61
2023/07/01 12:29:29;;;;;;;6.97;3.38;;;;;;;;;;4899083;29;20059;-61
2023/07/01 12:31:57;;;;;;;9.02;3.40;;;;;;;;;;4898714;29;20028;-60
2023/07/01 12:34:23;;;;;;;8.90;3.35;;;;;;;;;;4898717;29;20048;-60
2023/07/01 12:36:49;;;;;;;3.63;2.92;;;;;;;;;;4898901;29;20037;-64
2023/07/01 12:39:17;;;;;;;6.97;3.55;;;;;;;;;;4898925;29;20035;-60
2023/07/01 12:41:58;;;;;;;6.03;3.38;;;;;;;;;;4898564;29;20028;-62
2023/07/01 12:44:23;;;;;;;5.18;3.40;;;;;;;;;;4898863;29;20115;-62
2023/07/01 12:46:49;;;;;;;10.48;3.90;;;;;;;;;;4899161;29;20107;-61
2023/07/01 12:49:15;;;;;;;6.03;3.78;;;;;;;;;;4917458;29;20038;-60
2023/07/01 12:51:42;;;;;;;7.28;3.63;;;;;;;;;;4917248;29;20028;-62
2023/07/01 12:54:07;;;;;;;5.07;3.50;;;;;;;;;;4917265;29;20028;-61
2023/07/01 12:56:33;;;;;;;6.90;3.28;;;;;;;;;;4917102;29;20087;-63
2023/07/01 12:58:59;;;;;;;16.13;3.65;;;;;;;;;;4917202;29;20051;-64
2023/07/01 13:01:25;;;;;;;7.70;3.65;;;;;;;;;;4917113;29;20028;-62
2023/07/01 13:03:51;;;;;;;87.70;7.40;;;;;;;;;;4915844;29;20032;-63
2023/07/01 13:06:29;;;;;;;14.07;3.80;;;;;;;;;;4917013;29;20047;-60
2023/07/01 13:09:03;;;;;;;14.32;3.50;;;;;;;;;;4917062;29;20031;-60
2023/07/01 13:11:32;;;;;;;8.85;3.50;;;;;;;;;;4917082;29;20032;-60
2023/07/01 13:14:00;;;;;;;9.35;3.80;;;;;;;;;;4916928;29;20390;-60
2023/07/01 13:16:34;;;;;;;9.05;3.53;;;;;;;;;;4916825;29;20036;-60
2023/07/01 13:19:08;;;;;;;13.40;3.70;;;;;;;;;;4916762;29;20032;-60
2023/07/01 13:21:43;;;;;;;6.13;3.60;;;;;;;;;;4917046;29;20028;-60
2023/07/01 13:24:12;;;;;;;8.10;3.55;;;;;;;;;;4917051;29;20024;-60
2023/07/01 13:26:38;;;;;;;57.17;5.97;;;;;;;;;;4916959;29;20381;-59
2023/07/01 13:29:08;;;;;;;22.15;4.80;;;;;;;;;;4917015;29;20028;-61
2023/07/01 13:31:34;;;;;;;97.93;7.70;;;;;;;;;;4916742;29;20618;-62
2023/07/01 13:34:05;;;;;;;58.30;5.63;;;;;;;;;;4916798;29;20168;-63
2023/07/01 13:36:35;;;;;;;10.82;3.75;;;;;;;;;;4916500;29;20051;-64
2023/07/01 13:39:03;;;;;;;11.68;3.63;;;;;;;;;;4916521;29;20025;-68
2023/07/01 13:41:29;;;;;;;9.55;3.78;;;;;;;;;;4916753;29;20363;-63
2023/07/01 13:44:10;;;;;;;11.30;3.25;;;;;;;;;;4916792;29;20024;-62
2023/07/01 13:46:37;;;;;;;8.18;4.07;;;;;;;;;;4916700;29;20028;-63
2023/07/01 13:49:07;;;;;;;12.20;3.92;;;;;;;;;;4916314;29;20125;-62
2023/07/01 13:51:35;;;;;;;13.02;3.90;;;;;;;;;;4916184;29;20024;-62
2023/07/01 13:54:02;;;;;;;6.75;3.85;;;;;;;;;;4916011;29;20036;-62
2023/07/01 13:56:28;;;;;;;8.85;3.85;;;;;;;;;;4916380;29;20410;-65
2023/07/01 13:58:54;;;;;;;9.13;4.32;;;;;;;;;;4916322;29;20035;-64
2023/07/01 14:01:19;;;;;;;8.07;4.20;;;;;;;;;;4916373;29;20032;-63
2023/07/01 14:03:56;;;;;;;6.68;3.85;;;;;;;;;;4916261;29;20067;-63
2023/07/01 14:06:22;;;;;;;18.40;4.50;;;;;;;;;;4916613;29;20039;-65
2023/07/01 14:08:48;;;;;;;12.35;4.03;;;;;;;;;;4916551;29;20032;-66
2023/07/01 14:11:19;;;;;;;23.52;5.13;;;;;;;;;;4916209;29;20542;-67
2023/07/01 14:13:49;;;;;;;13.45;4.03;;;;;;;;;;4916484;29;20104;-66
2023/07/01 14:16:18;;;;;;;9.93;4.25;;;;;;;;;;4899191;29;20087;-66
2023/07/01 14:18:45;;;;;;;11.73;4.50;;;;;;;;;;4916232;29;20028;-67
2023/07/01 14:21:13;;;;;;;12.18;4.28;;;;;;;;;;4916191;29;20111;-66
2023/07/01 14:23:39;;;;;;;8.20;4.13;;;;;;;;;;4916455;29;20354;-66
2023/07/01 14:26:13;;;;;;;5.45;4.00;;;;;;;;;;4916126;29;20398;-66
2023/07/01 14:28:41;;;;;;;7.95;4.03;;;;;;;;;;4916085;29;20043;-66
2023/07/01 14:31:09;;;;;;;13.32;5.22;;;;;;;;;;4916296;29;20375;-66
2023/07/01 14:33:38;;;;;;;9.60;5.50;;;;;;;;;;4916125;29;20031;-67
2023/07/01 14:36:13;;;;;;;9.27;4.63;;;;;;;;;;4916308;29;20055;-67
2023/07/01 14:38:46;;;;;;;19.13;4.93;;;;;;;;;;4919753;29;20119;-66
2023/07/01 14:41:28;;;;;;;8.13;4.70;;;;;;;;;;4919574;29;20020;-67
2023/07/01 14:44:02;;;;;;;28.65;5.53;;;;;;;;;;4919592;29;20175;-66
2023/07/01 14:46:32;;;;;;;8.40;4.80;;;;;;;;;;4919560;29;20236;-67
2023/07/01 14:48:59;;;;;;;9.77;4.78;;;;;;;;;;4919443;29;20272;-66
2023/07/01 14:51:25;;;;;;;12.40;4.57;;;;;;;;;;4919715;29;20479;-65